createdAt,value
2019-06-08T00:02:04.072Z,23.52
2019-06-08T00:04:37.348Z,23.50
2019-06-08T00:07:13.073Z,23.53
2019-06-08T00:09:45.743Z,23.50
2019-06-08T00:12:19.061Z,23.49
2019-06-08T00:14:52.347Z,23.49
2019-06-08T00:17:37.661Z,23.47
2019-06-08T00:20:00.576Z,23.44
2019-06-08T00:22:33.739Z,23.41
2019-06-08T00:25:07.074Z,23.37
2019-06-08T00:27:40.409Z,23.32
2019-06-08T00:30:13.750Z,23.28
2019-06-08T00:32:47.101Z,23.26
2019-06-08T00:35:20.809Z,23.28
2019-06-08T00:37:53.874Z,23.27
2019-06-08T00:40:27.173Z,23.25
2019-06-08T00:43:00.493Z,23.22
2019-06-08T00:45:33.748Z,23.21
2019-06-08T00:48:07.090Z,23.20
2019-06-08T00:50:40.405Z,23.19
2019-06-08T00:53:14.790Z,23.10
2019-06-08T00:55:48.058Z,23.07
2019-06-08T00:58:22.000Z,23.05
2019-06-08T01:00:54.811Z,23.01
2019-06-08T01:03:28.215Z,22.96
2019-06-08T01:06:01.547Z,22.98
2019-06-08T01:08:34.878Z,22.99
2019-06-08T01:11:08.134Z,22.99
2019-06-08T01:13:41.636Z,22.96
2019-06-08T01:16:14.940Z,22.91
2019-06-08T01:18:48.447Z,22.85
2019-06-08T01:21:21.821Z,22.84
2019-06-08T01:23:55.158Z,22.82
2019-06-08T01:26:28.424Z,22.76
2019-06-08T01:29:01.753Z,22.73
2019-06-08T01:31:35.020Z,22.68
2019-06-08T01:34:08.342Z,22.66
2019-06-08T01:36:41.613Z,22.57
2019-06-08T01:39:15.050Z,22.53
2019-06-08T01:41:48.203Z,22.49
2019-06-08T01:44:21.601Z,22.48
2019-06-08T01:46:54.763Z,22.48
2019-06-08T01:49:28.404Z,22.49
2019-06-08T01:52:01.391Z,22.48
2019-06-08T01:54:34.733Z,22.48
2019-06-08T01:57:07.983Z,22.48
2019-06-08T01:59:41.303Z,22.44
2019-06-08T02:02:14.549Z,22.40
2019-06-08T02:04:49.054Z,22.40
2019-06-08T02:07:22.182Z,22.38
2019-06-08T02:09:55.510Z,22.38
2019-06-08T02:12:28.962Z,22.34
2019-06-08T02:15:02.296Z,22.35
2019-06-08T02:17:36.188Z,22.38
2019-06-08T02:20:09.935Z,22.42
2019-06-08T02:22:43.269Z,22.48
2019-06-08T02:25:17.169Z,22.58
2019-06-08T02:27:50.475Z,22.68
2019-06-08T02:30:24.007Z,22.77
2019-06-08T02:32:59.386Z,22.84
2019-06-08T02:35:35.178Z,22.87
2019-06-08T02:38:08.073Z,22.98
2019-06-08T02:40:41.492Z,23.09
2019-06-08T02:43:14.948Z,23.16
2019-06-08T02:45:48.287Z,23.20
2019-06-08T02:48:21.554Z,23.29
2019-06-08T02:50:56.690Z,23.43
2019-06-08T02:53:31.556Z,23.50
2019-06-08T02:56:03.664Z,23.54
2019-06-08T02:58:39.081Z,23.67
2019-06-08T03:01:11.240Z,23.82
2019-06-08T03:03:44.572Z,24.07
2019-06-08T03:06:17.850Z,24.28
2019-06-08T03:08:51.358Z,24.47
2019-06-08T03:11:24.712Z,24.66
2019-06-08T03:14:00.686Z,24.87
2019-06-08T03:16:35.878Z,25.08
2019-06-08T03:19:21.165Z,25.27
2019-06-08T03:21:42.629Z,25.45
2019-06-08T03:24:15.310Z,25.53
2019-06-08T03:26:48.593Z,25.68
2019-06-08T03:29:21.646Z,25.88
2019-06-08T03:31:56.891Z,26.05
2019-06-08T03:34:29.300Z,26.23
2019-06-08T03:37:02.589Z,26.47
2019-06-08T03:39:37.000Z,26.73
2019-06-08T03:42:10.254Z,26.95
2019-06-08T03:44:44.960Z,27.13
2019-06-08T03:47:18.121Z,27.35
2019-06-08T03:49:56.997Z,27.47
2019-06-08T03:52:25.729Z,27.64
2019-06-08T03:54:59.036Z,27.85
2019-06-08T03:57:32.452Z,28.14
2019-06-08T04:00:13.344Z,28.48
2019-06-08T04:02:44.857Z,28.75
2019-06-08T04:05:18.228Z,28.83
2019-06-08T04:07:51.549Z,29.11
2019-06-08T04:10:24.815Z,29.46
2019-06-08T04:12:58.144Z,29.80
2019-06-08T04:15:31.405Z,30.14
2019-06-08T04:18:04.903Z,30.50
2019-06-08T04:20:40.071Z,30.84
2019-06-08T04:23:12.945Z,31.15
2019-06-08T04:25:47.746Z,31.51
2019-06-08T04:28:20.450Z,31.89
2019-06-08T04:30:53.102Z,32.10
2019-06-08T04:33:25.782Z,32.29
2019-06-08T04:35:58.397Z,32.52
2019-06-08T04:38:31.038Z,32.64
2019-06-08T04:41:03.660Z,32.82
2019-06-08T04:43:38.493Z,33.03
2019-06-08T04:46:11.566Z,33.27
2019-06-08T04:48:45.800Z,33.72
2019-06-08T04:51:19.214Z,34.08
2019-06-08T04:53:52.526Z,34.33
2019-06-08T04:56:26.648Z,34.03
2019-06-08T04:58:59.284Z,33.79
2019-06-08T05:01:31.906Z,33.88
2019-06-08T05:04:05.356Z,34.03
2019-06-08T05:06:39.052Z,34.03
2019-06-08T05:09:11.878Z,34.07
2019-06-08T05:11:45.290Z,34.39
2019-06-08T05:14:18.226Z,34.47
2019-06-08T05:16:51.502Z,34.67
2019-06-08T05:19:24.144Z,34.80
2019-06-08T05:21:56.763Z,35.00
2019-06-08T05:24:29.431Z,35.02
2019-06-08T05:27:02.094Z,35.06
2019-06-08T05:29:35.521Z,34.52
2019-06-08T05:32:08.817Z,34.20
2019-06-08T05:34:43.365Z,34.22
2019-06-08T05:37:16.651Z,34.14
2019-06-08T05:39:49.954Z,33.97
2019-06-08T05:42:23.244Z,34.15
2019-06-08T05:44:56.250Z,34.04
2019-06-08T05:47:30.046Z,33.83
2019-06-08T05:50:02.683Z,33.84
2019-06-08T05:52:35.315Z,33.82
2019-06-08T05:55:08.555Z,33.93
2019-06-08T05:57:42.083Z,34.03
2019-06-08T06:00:15.113Z,34.17
2019-06-08T06:02:48.930Z,34.22
2019-06-08T06:05:21.834Z,34.11
2019-06-08T06:07:54.440Z,33.94
2019-06-08T06:10:27.155Z,34.21
2019-06-08T06:13:00.018Z,34.26
2019-06-08T06:15:33.331Z,34.40
2019-06-08T06:18:06.616Z,34.66
2019-06-08T06:20:39.454Z,34.76
2019-06-08T06:23:12.568Z,34.92
2019-06-08T06:25:47.437Z,35.24
2019-06-08T06:28:20.242Z,35.65
2019-06-08T06:30:52.915Z,35.82
2019-06-08T06:33:25.605Z,35.91
2019-06-08T06:35:58.306Z,36.04
2019-06-08T06:38:30.918Z,36.29
2019-06-08T06:41:03.565Z,36.55
2019-06-08T06:43:36.162Z,36.55
2019-06-08T06:46:08.811Z,36.58
2019-06-08T06:48:42.061Z,36.62
2019-06-08T06:51:25.850Z,37.08
2019-06-08T06:53:49.248Z,37.67
2019-06-08T06:56:21.912Z,37.98
2019-06-08T06:58:55.087Z,38.11
2019-06-08T07:01:27.729Z,37.99
2019-06-08T07:04:00.710Z,37.97
2019-06-08T07:06:33.393Z,37.58
2019-06-08T07:09:07.240Z,37.33
2019-06-08T07:11:40.509Z,36.98
2019-06-08T07:14:13.771Z,36.37
2019-06-08T07:16:47.767Z,35.93
2019-06-08T07:19:20.636Z,35.65
2019-06-08T07:21:54.751Z,35.63
2019-06-08T07:24:27.466Z,35.56
2019-06-08T07:27:00.114Z,35.41
2019-06-08T07:29:32.796Z,35.19
2019-06-08T07:32:05.809Z,34.95
2019-06-08T07:34:41.082Z,34.83
2019-06-08T07:37:12.757Z,34.69
2019-06-08T07:39:45.381Z,34.62
2019-06-08T07:42:18.015Z,34.45
2019-06-08T07:44:51.281Z,34.23
2019-06-08T07:47:24.605Z,34.14
2019-06-08T07:49:59.570Z,33.98
2019-06-08T07:52:33.562Z,33.69
2019-06-08T07:55:07.406Z,33.50
2019-06-08T07:57:40.150Z,33.58
2019-06-08T08:00:12.773Z,33.63
2019-06-08T08:02:45.809Z,33.65
2019-06-08T08:05:18.527Z,33.64
2019-06-08T08:07:52.558Z,33.70
2019-06-08T08:10:25.528Z,33.72
2019-06-08T08:12:58.959Z,33.68
2019-06-08T08:15:31.812Z,33.53
2019-06-08T08:18:04.467Z,33.61
2019-06-08T08:20:37.097Z,33.56
2019-06-08T08:23:09.716Z,33.28
2019-06-08T08:25:42.333Z,33.15
2019-06-08T08:28:15.036Z,33.06
2019-06-08T08:30:49.323Z,33.13
2019-06-08T08:33:22.080Z,33.06
2019-06-08T08:35:55.562Z,33.04
2019-06-08T08:38:28.405Z,33.16
2019-06-08T08:41:07.146Z,32.99
2019-06-08T08:43:37.574Z,32.89
2019-06-08T08:46:09.821Z,32.97
2019-06-08T08:48:43.727Z,32.86
2019-06-08T08:51:17.963Z,32.65
2019-06-08T08:53:53.857Z,32.53
2019-06-08T08:56:25.150Z,32.59
2019-06-08T08:59:00.964Z,32.40
2019-06-08T09:01:32.153Z,32.40
2019-06-08T09:04:05.308Z,32.40
2019-06-08T09:06:38.248Z,32.39
2019-06-08T09:09:10.985Z,32.34
2019-06-08T09:11:43.632Z,32.26
2019-06-08T09:14:18.414Z,32.22
2019-06-08T09:16:52.641Z,32.19
2019-06-08T09:19:27.924Z,32.16
2019-06-08T09:22:02.307Z,32.19
2019-06-08T09:24:34.378Z,32.20
2019-06-08T09:27:08.045Z,32.13
2019-06-08T09:29:41.141Z,31.91
2019-06-08T09:32:13.826Z,31.71
2019-06-08T09:34:48.321Z,31.70
2019-06-08T09:37:20.817Z,31.65
2019-06-08T09:39:53.959Z,31.62
2019-06-08T09:42:28.491Z,31.64
2019-06-08T09:45:05.087Z,31.70
2019-06-08T09:47:37.963Z,31.65
2019-06-08T09:50:12.286Z,31.58
2019-06-08T09:52:47.720Z,31.51
2019-06-08T09:55:19.583Z,31.42
2019-06-08T09:57:54.530Z,31.33
2019-06-08T10:00:29.243Z,31.25
2019-06-08T10:03:04.384Z,31.13
2019-06-08T10:05:38.690Z,31.06
2019-06-08T10:08:11.312Z,30.96
2019-06-08T10:10:45.185Z,30.94
2019-06-08T10:13:19.037Z,31.02
2019-06-08T10:15:52.010Z,31.01
2019-06-08T10:18:25.384Z,30.99
2019-06-08T10:21:01.230Z,30.96
2019-06-08T10:23:34.681Z,30.88
2019-06-08T10:26:07.755Z,30.87
2019-06-08T10:28:41.002Z,30.88
2019-06-08T10:31:14.379Z,30.90
2019-06-08T10:33:48.178Z,30.88
2019-06-08T10:36:21.094Z,30.85
2019-06-08T10:38:55.968Z,30.82
2019-06-08T10:41:28.728Z,30.77
2019-06-08T10:44:03.362Z,30.73
2019-06-08T10:46:40.325Z,30.71
2019-06-08T10:49:14.204Z,30.69
2019-06-08T10:51:45.096Z,30.61
2019-06-08T10:54:18.371Z,30.49
2019-06-08T10:56:52.941Z,30.50
2019-06-08T10:59:28.791Z,30.51
2019-06-08T11:02:03.497Z,30.50
2019-06-08T11:04:38.644Z,30.58
2019-06-08T11:07:15.455Z,30.56
2019-06-08T11:09:45.274Z,30.52
2019-06-08T11:12:18.529Z,30.51
2019-06-08T11:14:51.891Z,30.55
2019-06-08T11:17:27.774Z,30.63
2019-06-08T11:20:02.251Z,30.66
2019-06-08T11:22:34.677Z,30.66
2019-06-08T11:25:14.972Z,30.46
2019-06-08T11:27:42.530Z,30.23
2019-06-08T11:30:23.512Z,30.28
2019-06-08T11:32:50.126Z,30.35
2019-06-08T11:35:23.475Z,30.42
2019-06-08T11:37:58.485Z,30.45
2019-06-08T11:40:31.814Z,30.24
2019-06-08T11:43:06.399Z,30.21
2019-06-08T11:45:39.215Z,30.29
2019-06-08T11:48:12.552Z,30.37
2019-06-08T11:50:48.891Z,30.43
2019-06-08T11:53:21.173Z,30.37
2019-06-08T11:55:55.020Z,30.44
2019-06-08T11:58:30.763Z,30.50
2019-06-08T12:01:11.659Z,30.53
2019-06-08T12:03:42.786Z,30.54
2019-06-08T12:06:18.603Z,30.52
2019-06-08T12:08:50.567Z,30.51
2019-06-08T12:11:23.884Z,30.51
2019-06-08T12:13:58.487Z,30.59
2019-06-08T12:16:32.335Z,30.74
2019-06-08T12:19:06.821Z,30.83
2019-06-08T12:21:40.708Z,30.84
2019-06-08T12:24:14.453Z,30.89
2019-06-08T12:26:48.401Z,30.95
2019-06-08T12:29:22.067Z,31.06
2019-06-08T12:31:55.210Z,31.13
2019-06-08T12:34:28.548Z,31.19
2019-06-08T12:37:02.010Z,31.28
2019-06-08T12:39:35.343Z,31.36
2019-06-08T12:42:14.680Z,31.39
2019-06-08T12:44:43.768Z,31.45
2019-06-08T12:47:20.861Z,31.53
2019-06-08T12:49:51.067Z,31.57
2019-06-08T12:52:24.346Z,31.57
2019-06-08T12:55:06.045Z,31.53
2019-06-08T12:57:32.227Z,31.52
2019-06-08T13:00:09.903Z,31.57
2019-06-08T13:02:43.927Z,31.63
2019-06-08T13:05:21.200Z,31.64
2019-06-08T13:07:52.122Z,31.59
2019-06-08T13:10:27.619Z,31.61
2019-06-08T13:12:59.726Z,31.59
2019-06-08T13:15:33.062Z,31.57
2019-06-08T13:18:08.513Z,31.55
2019-06-08T13:20:40.752Z,31.48
2019-06-08T13:23:14.980Z,31.49
2019-06-08T13:25:48.324Z,31.46
2019-06-08T13:28:25.002Z,31.46
2019-06-08T13:30:58.140Z,31.49
2019-06-08T13:33:30.719Z,31.33
2019-06-08T13:36:04.229Z,31.09
2019-06-08T13:38:38.632Z,31.11
2019-06-08T13:41:12.930Z,31.19
2019-06-08T13:43:47.808Z,31.25
2019-06-08T13:46:23.313Z,31.27
2019-06-08T13:48:55.462Z,31.26
2019-06-08T13:51:29.265Z,31.27
2019-06-08T13:54:02.383Z,31.23
2019-06-08T13:56:38.465Z,31.19
2019-06-08T13:59:10.070Z,31.17
2019-06-08T14:01:43.230Z,31.13
2019-06-08T14:04:18.971Z,31.06
2019-06-08T14:06:50.843Z,31.00
2019-06-08T14:09:24.992Z,30.93
2019-06-08T14:11:58.099Z,30.78
2019-06-08T14:14:33.619Z,30.53
2019-06-08T14:17:08.342Z,30.42
2019-06-08T14:19:40.053Z,30.31
2019-06-08T14:22:13.369Z,30.28
2019-06-08T14:24:47.859Z,30.26
2019-06-08T14:27:21.413Z,30.23
2019-06-08T14:29:54.575Z,30.11
2019-06-08T14:32:28.230Z,30.11
2019-06-08T14:35:02.943Z,30.13
2019-06-08T14:37:35.405Z,30.04
2019-06-08T14:40:08.650Z,30.10
2019-06-08T14:42:42.444Z,30.19
2019-06-08T14:45:18.142Z,30.21
2019-06-08T14:47:51.643Z,30.23
2019-06-08T14:50:24.900Z,30.23
2019-06-08T14:52:59.083Z,30.22
2019-06-08T14:55:34.186Z,30.23
2019-06-08T14:58:08.320Z,30.24
2019-06-08T15:00:41.180Z,30.27
2019-06-08T15:03:14.905Z,30.28
2019-06-08T15:05:49.880Z,30.25
2019-06-08T15:08:23.628Z,30.25
2019-06-08T15:10:58.202Z,30.25
2019-06-08T15:13:31.294Z,30.13
2019-06-08T15:16:04.464Z,30.04
2019-06-08T15:18:38.536Z,30.04
2019-06-08T15:21:11.773Z,29.98
2019-06-08T15:23:47.199Z,29.97
2019-06-08T15:26:27.088Z,29.94
2019-06-08T15:28:54.387Z,29.98
2019-06-08T15:31:30.069Z,29.95
2019-06-08T15:34:02.927Z,29.98
2019-06-08T15:36:38.043Z,29.97
2019-06-08T15:39:10.273Z,29.96
2019-06-08T15:41:43.607Z,29.99
2019-06-08T15:44:21.157Z,29.98
2019-06-08T15:46:51.236Z,29.99
2019-06-08T15:49:24.549Z,30.00
2019-06-08T15:51:58.005Z,29.99
2019-06-08T15:54:36.198Z,29.97
2019-06-08T15:57:05.792Z,29.91
2019-06-08T15:59:41.815Z,29.85
2019-06-08T16:02:13.471Z,29.87
2019-06-08T16:04:46.910Z,29.81
2019-06-08T16:07:20.184Z,29.53
2019-06-08T16:09:53.576Z,29.31
2019-06-08T16:12:26.839Z,29.09
2019-06-08T16:15:00.168Z,28.96
2019-06-08T16:17:33.638Z,28.89
2019-06-08T16:20:07.131Z,28.82
2019-06-08T16:22:40.417Z,28.77
2019-06-08T16:25:13.746Z,28.70
2019-06-08T16:27:47.009Z,28.63
2019-06-08T16:30:20.345Z,28.45
2019-06-08T16:32:53.620Z,28.41
2019-06-08T16:35:28.105Z,28.37
2019-06-08T16:38:01.390Z,28.34
2019-06-08T16:40:36.253Z,28.26
2019-06-08T16:43:09.352Z,28.27
2019-06-08T16:45:42.692Z,28.24
2019-06-08T16:48:15.940Z,28.20
2019-06-08T16:50:48.961Z,28.21
2019-06-08T16:53:22.216Z,28.22
2019-06-08T16:55:55.569Z,28.19
2019-06-08T16:58:29.937Z,28.20
2019-06-08T17:01:03.137Z,28.19
2019-06-08T17:03:36.926Z,28.22
2019-06-08T17:06:10.442Z,28.26
2019-06-08T17:08:43.628Z,28.29
2019-06-08T17:11:16.989Z,28.29
2019-06-08T17:13:51.876Z,28.27
2019-06-08T17:16:25.181Z,28.24
2019-06-08T17:18:58.449Z,28.24
2019-06-08T17:21:32.194Z,28.24
2019-06-08T17:24:05.440Z,28.25
2019-06-08T17:26:39.113Z,28.24
2019-06-08T17:29:11.936Z,28.21
2019-06-08T17:31:45.271Z,28.15
2019-06-08T17:34:20.535Z,28.12
2019-06-08T17:36:52.870Z,28.10
2019-06-08T17:39:29.321Z,28.04
2019-06-08T17:42:01.061Z,27.97
2019-06-08T17:44:34.912Z,27.92
2019-06-08T17:47:08.483Z,27.85
2019-06-08T17:49:43.267Z,27.79
2019-06-08T17:52:17.019Z,27.74
2019-06-08T17:54:50.331Z,27.67
2019-06-08T17:57:23.666Z,27.62
2019-06-08T17:59:57.680Z,27.58
2019-06-08T18:02:31.917Z,27.52
2019-06-08T18:05:07.045Z,27.47
2019-06-08T18:07:41.966Z,27.51
2019-06-08T18:10:14.241Z,27.46
2019-06-08T18:12:49.286Z,27.43
2019-06-08T18:15:22.369Z,27.39
2019-06-08T18:17:57.688Z,27.35
2019-06-08T18:20:30.430Z,27.30
2019-06-08T18:23:03.675Z,27.25
2019-06-08T18:25:38.717Z,27.21
2019-06-08T18:28:13.588Z,27.18
2019-06-08T18:30:49.013Z,27.12
2019-06-08T18:33:20.193Z,27.08
2019-06-08T18:35:53.490Z,27.05
2019-06-08T18:38:27.396Z,27.06
2019-06-08T18:41:00.698Z,27.06
2019-06-08T18:43:34.934Z,27.04
2019-06-08T18:46:07.722Z,26.99
2019-06-08T18:48:42.141Z,26.98
2019-06-08T18:51:17.472Z,26.93
2019-06-08T18:54:07.242Z,26.85
2019-06-08T18:56:24.600Z,26.81
2019-06-08T18:58:59.156Z,26.78
2019-06-08T19:01:32.283Z,26.75
2019-06-08T19:04:07.687Z,26.73
2019-06-08T19:06:41.201Z,26.74
2019-06-08T19:09:17.037Z,26.73
2019-06-08T19:11:50.176Z,26.70
2019-06-08T19:14:23.182Z,26.65
2019-06-08T19:16:58.126Z,26.64
2019-06-08T19:19:31.728Z,26.56
2019-06-08T19:22:04.734Z,26.56
2019-06-08T19:24:41.342Z,26.54
2019-06-08T19:27:12.773Z,26.55
2019-06-08T19:29:49.172Z,26.47
2019-06-08T19:32:20.629Z,26.47
2019-06-08T19:34:54.947Z,26.43
2019-06-08T19:37:32.055Z,26.39
2019-06-08T19:40:02.977Z,26.33
2019-06-08T19:42:44.749Z,26.29
2019-06-08T19:45:10.497Z,26.26
2019-06-08T19:47:43.111Z,26.24
2019-06-08T19:50:17.233Z,26.21
2019-06-08T19:52:53.294Z,26.17
2019-06-08T19:55:25.035Z,26.13
2019-06-08T19:57:58.804Z,26.12
2019-06-08T20:00:32.128Z,26.12
2019-06-08T20:03:07.694Z,26.10
2019-06-08T20:05:41.303Z,26.08
2019-06-08T20:08:14.554Z,26.05
2019-06-08T20:10:49.236Z,26.00
2019-06-08T20:13:22.469Z,25.97
2019-06-08T20:15:59.578Z,25.97
2019-06-08T20:18:31.056Z,25.94
2019-06-08T20:21:04.461Z,25.91
2019-06-08T20:23:38.208Z,25.90
2019-06-08T20:26:11.595Z,25.90
2019-06-08T20:28:44.891Z,25.88
2019-06-08T20:31:18.232Z,25.85
2019-06-08T20:33:52.198Z,25.84
2019-06-08T20:36:25.305Z,25.76
2019-06-08T20:38:58.598Z,25.69
2019-06-08T20:41:31.917Z,25.66
2019-06-08T20:44:05.185Z,25.65
2019-06-08T20:46:38.625Z,25.64
2019-06-08T20:49:11.879Z,25.61
2019-06-08T20:51:45.191Z,25.60
2019-06-08T20:54:18.462Z,25.57
2019-06-08T20:56:52.378Z,25.52
2019-06-08T20:59:32.987Z,25.52
2019-06-08T21:02:01.247Z,25.51
2019-06-08T21:04:34.507Z,25.52
2019-06-08T21:07:08.266Z,25.59
2019-06-08T21:09:41.462Z,25.55
2019-06-08T21:12:14.852Z,25.56
2019-06-08T21:14:50.785Z,25.54
2019-06-08T21:17:23.168Z,25.50
2019-06-08T21:19:57.932Z,25.48
2019-06-08T21:22:30.852Z,25.48
2019-06-08T21:25:08.635Z,25.45
2019-06-08T21:27:41.615Z,25.46
2019-06-08T21:30:21.668Z,25.44
2019-06-08T21:32:52.949Z,25.42
2019-06-08T21:35:24.127Z,25.40
2019-06-08T21:38:01.051Z,25.38
2019-06-08T21:40:31.886Z,25.37
2019-06-08T21:43:05.037Z,25.36
2019-06-08T21:45:38.528Z,25.32
2019-06-08T21:48:12.040Z,25.29
2019-06-08T21:50:49.021Z,25.21
2019-06-08T21:53:20.169Z,25.12
2019-06-08T21:55:54.215Z,25.06
2019-06-08T21:58:28.162Z,25.05
2019-06-08T22:01:01.708Z,25.04
2019-06-08T22:03:34.578Z,25.01
2019-06-08T22:06:08.145Z,25.03
2019-06-08T22:08:41.574Z,25.03
2019-06-08T22:11:14.834Z,24.96
2019-06-08T22:13:48.178Z,24.90
2019-06-08T22:16:21.471Z,24.90
2019-06-08T22:18:54.923Z,24.89
2019-06-08T22:21:28.203Z,24.86
2019-06-08T22:24:01.106Z,24.87
2019-06-08T22:26:34.390Z,24.87
2019-06-08T22:29:08.023Z,24.85
2019-06-08T22:31:40.965Z,24.86
2019-06-08T22:34:14.169Z,24.87
2019-06-08T22:36:47.851Z,24.87
2019-06-08T22:39:20.689Z,24.89
2019-06-08T22:41:53.967Z,24.88
2019-06-08T22:44:28.437Z,24.86
2019-06-08T22:47:01.986Z,24.86
2019-06-08T22:49:38.226Z,24.87
2019-06-08T22:52:09.905Z,24.88
2019-06-08T22:54:43.053Z,24.88
2019-06-08T22:57:18.294Z,24.89
2019-06-08T22:59:50.930Z,24.93
2019-06-08T23:02:24.100Z,24.90
2019-06-08T23:05:01.335Z,24.91
2019-06-08T23:07:32.911Z,24.90
2019-06-08T23:10:08.906Z,24.93
2019-06-08T23:12:41.828Z,24.89
2019-06-08T23:15:15.130Z,24.86
2019-06-08T23:17:48.383Z,24.83
2019-06-08T23:20:21.707Z,24.79
2019-06-08T23:22:55.585Z,24.80
2019-06-08T23:25:29.306Z,24.78
2019-06-08T23:28:03.292Z,24.75
2019-06-08T23:30:38.226Z,24.75
2019-06-08T23:33:11.823Z,24.68
2019-06-08T23:36:27.387Z,24.66
2019-06-08T23:38:20.177Z,24.67
2019-06-08T23:40:53.510Z,24.67
2019-06-08T23:43:28.149Z,24.64
2019-06-08T23:46:02.426Z,24.61
2019-06-08T23:48:37.470Z,24.57
2019-06-08T23:51:11.017Z,24.59
2019-06-08T23:53:47.600Z,24.57
2019-06-08T23:56:19.471Z,24.55
2019-06-08T23:58:52.583Z,24.52
